sensor_id;sensor_type;location;lat;lon;timestamp;P1;durP1;ratioP1;P2;durP2;ratioP2
29478;SDS011;16437;41.836;23.480;2022-11-18T00:04:37;16.70;;;10.45;;
29478;SDS011;16437;41.836;23.480;2022-11-18T00:10:04;17.23;;;11.25;;
29478;SDS011;16437;41.836;23.480;2022-11-18T00:15:31;17.57;;;11.18;;
29478;SDS011;16437;41.836;23.480;2022-11-18T00:21:01;17.52;;;10.65;;
29478;SDS011;16437;41.836;23.480;2022-11-18T00:26:30;20.95;;;11.48;;
29478;SDS011;16437;41.836;23.480;2022-11-18T00:31:56;16.62;;;10.85;;
29478;SDS011;16437;41.836;23.480;2022-11-18T00:37:23;15.43;;;10.10;;
29478;SDS011;16437;41.836;23.480;2022-11-18T00:42:50;18.30;;;10.80;;
29478;SDS011;16437;41.836;23.480;2022-11-18T00:48:17;16.30;;;10.70;;
29478;SDS011;16437;41.836;23.480;2022-11-18T00:53:45;15.60;;;10.50;;
29478;SDS011;16437;41.836;23.480;2022-11-18T00:59:11;16.17;;;10.48;;
29478;SDS011;16437;41.836;23.480;2022-11-18T01:04:38;17.20;;;10.82;;
29478;SDS011;16437;41.836;23.480;2022-11-18T01:10:04;15.78;;;10.65;;
29478;SDS011;16437;41.836;23.480;2022-11-18T01:15:36;15.45;;;9.93;;
29478;SDS011;16437;41.836;23.480;2022-11-18T01:21:06;15.63;;;10.05;;
29478;SDS011;16437;41.836;23.480;2022-11-18T01:26:32;18.02;;;10.15;;
29478;SDS011;16437;41.836;23.480;2022-11-18T01:31:59;15.30;;;10.08;;
29478;SDS011;16437;41.836;23.480;2022-11-18T01:37:25;14.78;;;9.73;;
29478;SDS011;16437;41.836;23.480;2022-11-18T01:42:52;14.65;;;9.85;;
29478;SDS011;16437;41.836;23.480;2022-11-18T01:48:30;16.52;;;9.93;;
29478;SDS011;16437;41.836;23.480;2022-11-18T01:54:04;17.20;;;10.30;;
29478;SDS011;16437;41.836;23.480;2022-11-18T01:59:35;14.13;;;9.85;;
29478;SDS011;16437;41.836;23.480;2022-11-18T02:05:05;14.45;;;9.65;;
29478;SDS011;16437;41.836;23.480;2022-11-18T02:10:34;15.88;;;10.20;;
29478;SDS011;16437;41.836;23.480;2022-11-18T02:16:07;15.60;;;9.95;;
29478;SDS011;16437;41.836;23.480;2022-11-18T02:21:47;12.80;;;9.57;;
29478;SDS011;16437;41.836;23.480;2022-11-18T02:27:37;13.97;;;9.70;;
29478;SDS011;16437;41.836;23.480;2022-11-18T02:33:02;16.05;;;10.08;;
29478;SDS011;16437;41.836;23.480;2022-11-18T02:38:44;14.90;;;9.85;;
29478;SDS011;16437;41.836;23.480;2022-11-18T02:44:18;16.45;;;9.48;;
29478;SDS011;16437;41.836;23.480;2022-11-18T02:49:43;13.95;;;9.08;;
29478;SDS011;16437;41.836;23.480;2022-11-18T02:55:11;14.33;;;9.70;;
29478;SDS011;16437;41.836;23.480;2022-11-18T03:00:39;13.78;;;9.40;;
29478;SDS011;16437;41.836;23.480;2022-11-18T03:06:41;12.85;;;8.90;;
29478;SDS011;16437;41.836;23.480;2022-11-18T03:23:01;14.58;;;9.53;;
29478;SDS011;16437;41.836;23.480;2022-11-18T03:28:52;14.30;;;8.45;;
29478;SDS011;16437;41.836;23.480;2022-11-18T03:34:29;12.80;;;8.90;;
29478;SDS011;16437;41.836;23.480;2022-11-18T03:39:58;11.85;;;7.60;;
29478;SDS011;16437;41.836;23.480;2022-11-18T03:45:33;12.18;;;8.48;;
29478;SDS011;16437;41.836;23.480;2022-11-18T03:51:00;13.22;;;8.25;;
29478;SDS011;16437;41.836;23.480;2022-11-18T03:56:29;11.35;;;7.87;;
29478;SDS011;16437;41.836;23.480;2022-11-18T04:02:19;13.40;;;7.80;;
29478;SDS011;16437;41.836;23.480;2022-11-18T04:13:17;11.10;;;7.40;;
29478;SDS011;16437;41.836;23.480;2022-11-18T04:18:46;10.95;;;7.22;;
29478;SDS011;16437;41.836;23.480;2022-11-18T04:24:13;10.78;;;7.47;;
29478;SDS011;16437;41.836;23.480;2022-11-18T04:29:40;10.53;;;7.53;;
29478;SDS011;16437;41.836;23.480;2022-11-18T04:35:06;11.40;;;7.60;;
29478;SDS011;16437;41.836;23.480;2022-11-18T04:40:32;9.68;;;7.00;;
29478;SDS011;16437;41.836;23.480;2022-11-18T04:45:59;9.18;;;6.90;;
29478;SDS011;16437;41.836;23.480;2022-11-18T04:51:25;10.75;;;7.20;;
29478;SDS011;16437;41.836;23.480;2022-11-18T04:56:51;9.63;;;6.78;;
29478;SDS011;16437;41.836;23.480;2022-11-18T05:02:18;9.30;;;6.45;;
29478;SDS011;16437;41.836;23.480;2022-11-18T05:07:45;9.70;;;7.30;;
29478;SDS011;16437;41.836;23.480;2022-11-18T05:13:11;9.73;;;6.60;;
29478;SDS011;16437;41.836;23.480;2022-11-18T05:18:38;9.28;;;6.58;;
29478;SDS011;16437;41.836;23.480;2022-11-18T05:24:04;9.93;;;6.85;;
29478;SDS011;16437;41.836;23.480;2022-11-18T05:29:32;9.50;;;6.90;;
29478;SDS011;16437;41.836;23.480;2022-11-18T05:34:58;9.75;;;6.55;;
29478;SDS011;16437;41.836;23.480;2022-11-18T05:40:24;8.58;;;6.00;;
29478;SDS011;16437;41.836;23.480;2022-11-18T05:45:50;9.05;;;6.08;;
29478;SDS011;16437;41.836;23.480;2022-11-18T05:51:17;8.28;;;6.12;;
29478;SDS011;16437;41.836;23.480;2022-11-18T05:56:43;9.25;;;6.45;;
29478;SDS011;16437;41.836;23.480;2022-11-18T06:02:11;10.40;;;6.80;;
29478;SDS011;16437;41.836;23.480;2022-11-18T06:07:43;9.23;;;6.22;;
29478;SDS011;16437;41.836;23.480;2022-11-18T06:13:10;8.05;;;6.00;;
29478;SDS011;16437;41.836;23.480;2022-11-18T06:18:39;9.25;;;6.10;;
29478;SDS011;16437;41.836;23.480;2022-11-18T06:24:06;8.28;;;6.25;;
29478;SDS011;16437;41.836;23.480;2022-11-18T06:29:33;8.20;;;5.58;;
29478;SDS011;16437;41.836;23.480;2022-11-18T06:35:00;8.03;;;5.47;;
29478;SDS011;16437;41.836;23.480;2022-11-18T06:40:26;7.85;;;5.62;;
29478;SDS011;16437;41.836;23.480;2022-11-18T06:45:57;9.25;;;6.33;;
29478;SDS011;16437;41.836;23.480;2022-11-18T06:51:42;8.23;;;5.65;;
29478;SDS011;16437;41.836;23.480;2022-11-18T06:57:09;8.28;;;5.80;;
29478;SDS011;16437;41.836;23.480;2022-11-18T07:02:36;8.90;;;6.25;;
29478;SDS011;16437;41.836;23.480;2022-11-18T07:08:02;7.62;;;5.62;;
29478;SDS011;16437;41.836;23.480;2022-11-18T07:13:30;7.80;;;6.05;;
29478;SDS011;16437;41.836;23.480;2022-11-18T07:18:57;8.05;;;5.75;;
29478;SDS011;16437;41.836;23.480;2022-11-18T07:24:24;9.18;;;6.10;;
29478;SDS011;16437;41.836;23.480;2022-11-18T07:29:50;8.58;;;6.10;;
29478;SDS011;16437;41.836;23.480;2022-11-18T07:35:16;8.35;;;5.78;;
29478;SDS011;16437;41.836;23.480;2022-11-18T07:40:42;9.90;;;5.97;;
29478;SDS011;16437;41.836;23.480;2022-11-18T07:46:13;7.95;;;5.70;;
29478;SDS011;16437;41.836;23.480;2022-11-18T07:51:40;9.20;;;6.40;;
29478;SDS011;16437;41.836;23.480;2022-11-18T07:57:07;9.50;;;6.28;;
29478;SDS011;16437;41.836;23.480;2022-11-18T08:02:33;9.83;;;6.72;;
29478;SDS011;16437;41.836;23.480;2022-11-18T08:08:00;10.55;;;6.92;;
29478;SDS011;16437;41.836;23.480;2022-11-18T08:13:26;9.60;;;6.92;;
29478;SDS011;16437;41.836;23.480;2022-11-18T08:18:54;11.43;;;7.58;;
29478;SDS011;16437;41.836;23.480;2022-11-18T08:24:22;10.63;;;7.55;;
29478;SDS011;16437;41.836;23.480;2022-11-18T08:29:48;13.38;;;8.35;;
29478;SDS011;16437;41.836;23.480;2022-11-18T08:35:15;10.45;;;7.45;;
29478;SDS011;16437;41.836;23.480;2022-11-18T08:40:42;11.55;;;7.55;;
29478;SDS011;16437;41.836;23.480;2022-11-18T08:46:11;12.82;;;8.55;;
29478;SDS011;16437;41.836;23.480;2022-11-18T08:51:38;10.63;;;8.05;;
29478;SDS011;16437;41.836;23.480;2022-11-18T08:57:04;12.88;;;8.40;;
29478;SDS011;16437;41.836;23.480;2022-11-18T09:02:31;12.68;;;8.20;;
29478;SDS011;16437;41.836;23.480;2022-11-18T09:07:57;14.23;;;8.73;;
29478;SDS011;16437;41.836;23.480;2022-11-18T09:13:23;13.78;;;9.10;;
29478;SDS011;16437;41.836;23.480;2022-11-18T09:18:50;11.60;;;7.85;;
29478;SDS011;16437;41.836;23.480;2022-11-18T09:24:17;13.75;;;8.90;;
29478;SDS011;16437;41.836;23.480;2022-11-18T09:29:44;12.23;;;8.28;;
29478;SDS011;16437;41.836;23.480;2022-11-18T09:35:10;13.93;;;8.30;;
29478;SDS011;16437;41.836;23.480;2022-11-18T09:52:23;14.43;;;9.65;;
29478;SDS011;16437;41.836;23.480;2022-11-18T09:57:50;15.25;;;9.85;;
29478;SDS011;16437;41.836;23.480;2022-11-18T10:08:58;14.68;;;9.78;;
29478;SDS011;16437;41.836;23.480;2022-11-18T10:20:36;14.33;;;10.23;;
29478;SDS011;16437;41.836;23.480;2022-11-18T10:25:58;15.13;;;10.10;;
29478;SDS011;16437;41.836;23.480;2022-11-18T10:31:25;15.60;;;10.38;;
29478;SDS011;16437;41.836;23.480;2022-11-18T10:37:02;17.45;;;11.12;;
29478;SDS011;16437;41.836;23.480;2022-11-18T10:42:34;19.90;;;11.87;;
29478;SDS011;16437;41.836;23.480;2022-11-18T10:53:35;23.55;;;13.60;;
29478;SDS011;16437;41.836;23.480;2022-11-18T10:59:02;23.65;;;13.28;;
29478;SDS011;16437;41.836;23.480;2022-11-18T11:04:28;20.10;;;12.75;;
29478;SDS011;16437;41.836;23.480;2022-11-18T11:15:47;23.98;;;13.60;;
29478;SDS011;16437;41.836;23.480;2022-11-18T11:21:16;27.13;;;13.55;;
29478;SDS011;16437;41.836;23.480;2022-11-18T11:27:09;25.68;;;13.65;;
29478;SDS011;16437;41.836;23.480;2022-11-18T11:33:00;26.85;;;15.00;;
29478;SDS011;16437;41.836;23.480;2022-11-18T11:49:55;27.82;;;15.20;;
29478;SDS011;16437;41.836;23.480;2022-11-18T12:06:46;21.73;;;13.62;;
29478;SDS011;16437;41.836;23.480;2022-11-18T12:18:11;23.60;;;14.43;;
29478;SDS011;16437;41.836;23.480;2022-11-18T12:23:39;21.52;;;13.08;;
29478;SDS011;16437;41.836;23.480;2022-11-18T12:29:18;21.35;;;13.13;;
29478;SDS011;16437;41.836;23.480;2022-11-18T12:34:44;20.57;;;13.00;;
29478;SDS011;16437;41.836;23.480;2022-11-18T12:40:29;19.92;;;12.58;;
29478;SDS011;16437;41.836;23.480;2022-11-18T12:45:56;20.02;;;11.73;;
29478;SDS011;16437;41.836;23.480;2022-11-18T12:56:53;23.27;;;13.38;;
29478;SDS011;16437;41.836;23.480;2022-11-18T13:02:25;18.20;;;11.60;;
29478;SDS011;16437;41.836;23.480;2022-11-18T13:13:38;18.15;;;11.25;;
29478;SDS011;16437;41.836;23.480;2022-11-18T13:19:05;20.92;;;13.18;;
29478;SDS011;16437;41.836;23.480;2022-11-18T13:24:41;21.35;;;13.00;;
29478;SDS011;16437;41.836;23.480;2022-11-18T13:30:05;19.62;;;12.25;;
29478;SDS011;16437;41.836;23.480;2022-11-18T13:35:38;22.82;;;13.00;;
29478;SDS011;16437;41.836;23.480;2022-11-18T13:41:12;20.55;;;12.28;;
29478;SDS011;16437;41.836;23.480;2022-11-18T13:46:35;19.73;;;11.68;;
29478;SDS011;16437;41.836;23.480;2022-11-18T13:52:05;19.07;;;12.30;;
29478;SDS011;16437;41.836;23.480;2022-11-18T13:57:40;18.07;;;11.70;;
29478;SDS011;16437;41.836;23.480;2022-11-18T14:03:20;22.45;;;12.88;;
29478;SDS011;16437;41.836;23.480;2022-11-18T14:09:02;18.37;;;11.60;;
29478;SDS011;16437;41.836;23.480;2022-11-18T14:14:40;19.42;;;11.70;;
29478;SDS011;16437;41.836;23.480;2022-11-18T14:20:11;19.10;;;12.18;;
29478;SDS011;16437;41.836;23.480;2022-11-18T14:25:36;19.95;;;12.18;;
29478;SDS011;16437;41.836;23.480;2022-11-18T14:31:06;16.17;;;11.28;;
29478;SDS011;16437;41.836;23.480;2022-11-18T14:36:48;17.60;;;11.50;;
29478;SDS011;16437;41.836;23.480;2022-11-18T14:42:11;20.48;;;11.60;;
29478;SDS011;16437;41.836;23.480;2022-11-18T14:47:38;19.27;;;12.13;;
29478;SDS011;16437;41.836;23.480;2022-11-18T14:53:08;20.68;;;13.90;;
29478;SDS011;16437;41.836;23.480;2022-11-18T14:58:35;23.25;;;14.90;;
29478;SDS011;16437;41.836;23.480;2022-11-18T15:04:02;18.95;;;12.80;;
29478;SDS011;16437;41.836;23.480;2022-11-18T15:09:28;21.23;;;14.03;;
29478;SDS011;16437;41.836;23.480;2022-11-18T15:14:54;21.50;;;13.45;;
29478;SDS011;16437;41.836;23.480;2022-11-18T15:20:21;20.35;;;12.63;;
29478;SDS011;16437;41.836;23.480;2022-11-18T15:25:47;21.23;;;13.45;;
29478;SDS011;16437;41.836;23.480;2022-11-18T15:31:14;23.50;;;13.78;;
29478;SDS011;16437;41.836;23.480;2022-11-18T15:36:41;24.12;;;15.75;;
29478;SDS011;16437;41.836;23.480;2022-11-18T15:42:08;31.85;;;19.12;;
29478;SDS011;16437;41.836;23.480;2022-11-18T15:47:35;28.00;;;17.62;;
29478;SDS011;16437;41.836;23.480;2022-11-18T15:53:01;29.15;;;18.05;;
29478;SDS011;16437;41.836;23.480;2022-11-18T15:58:28;30.65;;;19.67;;
29478;SDS011;16437;41.836;23.480;2022-11-18T16:03:54;26.73;;;18.45;;
29478;SDS011;16437;41.836;23.480;2022-11-18T16:09:21;56.15;;;33.80;;
29478;SDS011;16437;41.836;23.480;2022-11-18T16:14:47;35.38;;;22.37;;
29478;SDS011;16437;41.836;23.480;2022-11-18T16:20:15;38.85;;;23.25;;
29478;SDS011;16437;41.836;23.480;2022-11-18T16:25:42;36.73;;;23.00;;
29478;SDS011;16437;41.836;23.480;2022-11-18T16:31:10;35.83;;;22.58;;
29478;SDS011;16437;41.836;23.480;2022-11-18T16:36:55;42.55;;;23.75;;
29478;SDS011;16437;41.836;23.480;2022-11-18T16:42:26;37.80;;;22.93;;
29478;SDS011;16437;41.836;23.480;2022-11-18T16:47:52;34.60;;;21.60;;
29478;SDS011;16437;41.836;23.480;2022-11-18T16:53:18;37.38;;;22.98;;
29478;SDS011;16437;41.836;23.480;2022-11-18T16:58:45;38.53;;;22.48;;
29478;SDS011;16437;41.836;23.480;2022-11-18T17:04:12;36.68;;;22.87;;
29478;SDS011;16437;41.836;23.480;2022-11-18T17:09:38;41.30;;;24.63;;
29478;SDS011;16437;41.836;23.480;2022-11-18T17:15:05;36.53;;;22.98;;
29478;SDS011;16437;41.836;23.480;2022-11-18T17:20:36;39.53;;;24.60;;
29478;SDS011;16437;41.836;23.480;2022-11-18T17:26:03;36.83;;;22.90;;
29478;SDS011;16437;41.836;23.480;2022-11-18T17:31:31;37.25;;;23.20;;
29478;SDS011;16437;41.836;23.480;2022-11-18T17:36:58;38.58;;;23.15;;
29478;SDS011;16437;41.836;23.480;2022-11-18T17:42:24;35.25;;;23.02;;
29478;SDS011;16437;41.836;23.480;2022-11-18T17:47:51;34.43;;;21.75;;
29478;SDS011;16437;41.836;23.480;2022-11-18T17:53:17;32.90;;;20.82;;
29478;SDS011;16437;41.836;23.480;2022-11-18T17:58:44;34.43;;;21.25;;
29478;SDS011;16437;41.836;23.480;2022-11-18T18:04:13;34.15;;;20.95;;
29478;SDS011;16437;41.836;23.480;2022-11-18T18:15:10;29.82;;;19.27;;
29478;SDS011;16437;41.836;23.480;2022-11-18T18:20:37;35.17;;;21.42;;
29478;SDS011;16437;41.836;23.480;2022-11-18T18:26:03;30.10;;;19.62;;
29478;SDS011;16437;41.836;23.480;2022-11-18T18:31:32;29.52;;;19.25;;
29478;SDS011;16437;41.836;23.480;2022-11-18T18:37:00;31.97;;;19.65;;
29478;SDS011;16437;41.836;23.480;2022-11-18T18:42:26;33.55;;;21.07;;
29478;SDS011;16437;41.836;23.480;2022-11-18T18:47:52;30.77;;;19.90;;
29478;SDS011;16437;41.836;23.480;2022-11-18T18:53:19;34.90;;;20.60;;
29478;SDS011;16437;41.836;23.480;2022-11-18T18:58:45;32.65;;;20.72;;
29478;SDS011;16437;41.836;23.480;2022-11-18T19:04:12;37.15;;;21.68;;
29478;SDS011;16437;41.836;23.480;2022-11-18T19:09:39;35.25;;;22.15;;
29478;SDS011;16437;41.836;23.480;2022-11-18T19:15:06;33.65;;;21.50;;
29478;SDS011;16437;41.836;23.480;2022-11-18T19:20:34;37.93;;;23.10;;
29478;SDS011;16437;41.836;23.480;2022-11-18T19:26:00;33.23;;;20.80;;
29478;SDS011;16437;41.836;23.480;2022-11-18T19:31:27;36.55;;;21.87;;
29478;SDS011;16437;41.836;23.480;2022-11-18T19:36:53;31.10;;;20.50;;
29478;SDS011;16437;41.836;23.480;2022-11-18T19:42:20;42.65;;;25.45;;
29478;SDS011;16437;41.836;23.480;2022-11-18T19:47:47;38.28;;;22.77;;
29478;SDS011;16437;41.836;23.480;2022-11-18T19:53:13;39.98;;;25.23;;
29478;SDS011;16437;41.836;23.480;2022-11-18T19:58:55;38.23;;;24.80;;
29478;SDS011;16437;41.836;23.480;2022-11-18T20:04:23;35.98;;;23.07;;
29478;SDS011;16437;41.836;23.480;2022-11-18T20:09:49;40.03;;;25.45;;
29478;SDS011;16437;41.836;23.480;2022-11-18T20:15:16;34.70;;;23.05;;
29478;SDS011;16437;41.836;23.480;2022-11-18T20:20:42;37.50;;;23.92;;
29478;SDS011;16437;41.836;23.480;2022-11-18T20:26:09;35.92;;;22.75;;
29478;SDS011;16437;41.836;23.480;2022-11-18T20:31:37;35.20;;;22.67;;
29478;SDS011;16437;41.836;23.480;2022-11-18T20:37:04;41.15;;;22.75;;
29478;SDS011;16437;41.836;23.480;2022-11-18T20:42:30;36.40;;;21.93;;
29478;SDS011;16437;41.836;23.480;2022-11-18T20:48:15;34.48;;;22.13;;
29478;SDS011;16437;41.836;23.480;2022-11-18T20:53:41;31.82;;;20.88;;
29478;SDS011;16437;41.836;23.480;2022-11-18T20:59:08;35.80;;;22.58;;
29478;SDS011;16437;41.836;23.480;2022-11-18T21:04:34;36.28;;;21.95;;
29478;SDS011;16437;41.836;23.480;2022-11-18T21:10:01;33.60;;;21.50;;
29478;SDS011;16437;41.836;23.480;2022-11-18T21:15:27;32.20;;;20.77;;
29478;SDS011;16437;41.836;23.480;2022-11-18T21:20:55;34.75;;;21.35;;
29478;SDS011;16437;41.836;23.480;2022-11-18T21:26:40;30.27;;;20.32;;
29478;SDS011;16437;41.836;23.480;2022-11-18T21:32:06;32.48;;;20.88;;
29478;SDS011;16437;41.836;23.480;2022-11-18T21:37:33;32.93;;;20.80;;
29478;SDS011;16437;41.836;23.480;2022-11-18T21:42:59;34.48;;;20.10;;
29478;SDS011;16437;41.836;23.480;2022-11-18T21:48:27;31.05;;;19.65;;
29478;SDS011;16437;41.836;23.480;2022-11-18T21:53:53;28.62;;;18.90;;
29478;SDS011;16437;41.836;23.480;2022-11-18T21:59:20;30.72;;;19.48;;
29478;SDS011;16437;41.836;23.480;2022-11-18T22:04:47;31.33;;;20.45;;
29478;SDS011;16437;41.836;23.480;2022-11-18T22:10:16;31.17;;;20.52;;
29478;SDS011;16437;41.836;23.480;2022-11-18T22:15:42;27.70;;;18.62;;
29478;SDS011;16437;41.836;23.480;2022-11-18T22:21:10;29.67;;;19.62;;
29478;SDS011;16437;41.836;23.480;2022-11-18T22:26:41;29.20;;;18.60;;
29478;SDS011;16437;41.836;23.480;2022-11-18T22:32:07;31.20;;;19.15;;
29478;SDS011;16437;41.836;23.480;2022-11-18T22:37:33;29.05;;;19.37;;
29478;SDS011;16437;41.836;23.480;2022-11-18T22:42:59;31.65;;;19.40;;
29478;SDS011;16437;41.836;23.480;2022-11-18T22:48:26;29.18;;;18.37;;
29478;SDS011;16437;41.836;23.480;2022-11-18T22:53:52;31.00;;;18.98;;
29478;SDS011;16437;41.836;23.480;2022-11-18T22:59:19;38.40;;;19.32;;
29478;SDS011;16437;41.836;23.480;2022-11-18T23:04:46;26.48;;;16.97;;
29478;SDS011;16437;41.836;23.480;2022-11-18T23:10:12;21.65;;;14.13;;
29478;SDS011;16437;41.836;23.480;2022-11-18T23:15:39;19.70;;;12.63;;
29478;SDS011;16437;41.836;23.480;2022-11-18T23:21:05;17.30;;;10.00;;
29478;SDS011;16437;41.836;23.480;2022-11-18T23:26:31;18.15;;;11.38;;
29478;SDS011;16437;41.836;23.480;2022-11-18T23:31:58;21.37;;;12.85;;
29478;SDS011;16437;41.836;23.480;2022-11-18T23:37:24;18.48;;;12.53;;
29478;SDS011;16437;41.836;23.480;2022-11-18T23:42:50;17.45;;;12.55;;
29478;SDS011;16437;41.836;23.480;2022-11-18T23:48:18;20.75;;;13.32;;
29478;SDS011;16437;41.836;23.480;2022-11-18T23:53:46;19.52;;;12.85;;
29478;SDS011;16437;41.836;23.480;2022-11-18T23:59:14;18.07;;;11.88;;
